METAR Data
IDs: Format: Raw Decoded Include TAF

Data at: 1859 UTC 25 Oct 2021

UUMO 251830Z 22003MPS CAVOK M01/M04 Q1026 R25/090060 NOSIG RMK QFE754/1006